createdAt,value
2017-08-21T00:00:25.214Z,24.19
2017-08-21T00:01:05.668Z,24.18
2017-08-21T00:01:46.115Z,24.18
2017-08-21T00:02:26.588Z,24.21
2017-08-21T00:03:07.035Z,24.18
2017-08-21T00:03:47.493Z,24.18
2017-08-21T00:04:27.933Z,24.18
2017-08-21T00:05:08.383Z,24.16
2017-08-21T00:05:48.851Z,24.24
2017-08-21T00:06:29.308Z,24.18
2017-08-21T00:07:09.765Z,24.24
2017-08-21T00:07:50.254Z,24.16
2017-08-21T00:08:30.711Z,24.14
2017-08-21T00:09:11.165Z,24.13
2017-08-21T00:09:51.611Z,24.16
2017-08-21T00:10:32.071Z,24.18
2017-08-21T00:11:12.544Z,24.21
2017-08-21T00:11:52.984Z,24.13
2017-08-21T00:12:33.441Z,24.14
2017-08-21T00:13:13.899Z,24.11
2017-08-21T00:13:54.339Z,24.11
2017-08-21T00:14:34.803Z,24.21
2017-08-21T00:15:15.238Z,24.07
2017-08-21T00:15:55.707Z,24.14
2017-08-21T00:16:36.168Z,24.14
2017-08-21T00:17:16.626Z,24.16
2017-08-21T00:17:57.096Z,24.16
2017-08-21T00:18:37.542Z,24.09
2017-08-21T00:19:18.000Z,24.14
2017-08-21T00:19:58.457Z,24.13
2017-08-21T00:20:38.917Z,24.14
2017-08-21T00:21:19.372Z,24.14
2017-08-21T00:21:59.842Z,24.13
2017-08-21T00:22:40.297Z,24.09
2017-08-21T00:23:20.742Z,24.16
2017-08-21T00:24:01.188Z,24.11
2017-08-21T00:24:41.612Z,24.13
2017-08-21T00:25:22.019Z,24.11
2017-08-21T00:26:02.450Z,24.14
2017-08-21T00:26:42.852Z,24.09
2017-08-21T00:27:23.255Z,24.1
2017-08-21T00:28:03.644Z,24.11
2017-08-21T00:28:44.063Z,24.13
2017-08-21T00:29:24.520Z,24.13
2017-08-21T00:30:04.943Z,24.1
2017-08-21T00:30:45.341Z,24.11
2017-08-21T00:31:25.754Z,24.09
2017-08-21T00:32:06.178Z,24.11
2017-08-21T00:32:46.602Z,24.1
2017-08-21T00:33:27.023Z,24.1
2017-08-21T00:34:07.437Z,24.07
2017-08-21T00:34:47.842Z,24.09
2017-08-21T00:35:28.299Z,24.07
2017-08-21T00:36:08.757Z,24.11
2017-08-21T00:36:49.218Z,24.1
2017-08-21T00:37:29.667Z,24.13
2017-08-21T00:38:10.125Z,24.09
2017-08-21T00:38:50.590Z,24.09
2017-08-21T00:39:31.049Z,24.07
2017-08-21T00:40:11.509Z,24.04
2017-08-21T00:40:51.967Z,24.09
2017-08-21T00:41:32.436Z,24.11
2017-08-21T00:42:12.896Z,24.09
2017-08-21T00:42:53.327Z,24.09
2017-08-21T00:43:33.784Z,24.07
2017-08-21T00:44:14.245Z,24.09
2017-08-21T00:44:54.710Z,24.09
2017-08-21T00:45:35.164Z,24.07
2017-08-21T00:46:15.624Z,24.06
2017-08-21T00:46:56.091Z,24.1
2017-08-21T00:47:36.552Z,24.09
2017-08-21T00:48:17.006Z,24.1
2017-08-21T00:48:57.464Z,24.04
2017-08-21T00:49:37.916Z,24.04
2017-08-21T00:50:18.377Z,24.09
2017-08-21T00:50:58.833Z,24.1
2017-08-21T00:51:39.288Z,24.09
2017-08-21T00:52:19.748Z,24.07
2017-08-21T00:53:00.241Z,24.07
2017-08-21T00:53:40.699Z,24.06
2017-08-21T00:54:21.156Z,24.07
2017-08-21T00:55:01.638Z,24.06
2017-08-21T00:55:42.080Z,24.01
2017-08-21T00:56:22.541Z,24.09
2017-08-21T00:57:02.996Z,24.09
2017-08-21T00:57:43.440Z,24.07
2017-08-21T00:58:23.889Z,24.09
2017-08-21T00:59:04.352Z,24.07
2017-08-21T00:59:45.233Z,24.07
2017-08-21T01:00:26.165Z,24.09
2017-08-21T01:01:06.615Z,24.07
2017-08-21T01:01:47.069Z,23.95
2017-08-21T01:02:27.914Z,24.1
2017-08-21T01:03:08.368Z,24.04
2017-08-21T01:03:48.820Z,24
2017-08-21T01:04:29.273Z,24.1
2017-08-21T01:05:09.754Z,24.09
2017-08-21T01:05:50.266Z,24.03
2017-08-21T01:06:30.717Z,24.03
2017-08-21T01:07:11.161Z,24.03
2017-08-21T01:07:51.617Z,24.04
2017-08-21T01:08:32.069Z,24
2017-08-21T01:09:12.516Z,24.06
2017-08-21T01:09:52.978Z,24.1
2017-08-21T01:10:33.405Z,24.03
2017-08-21T01:11:13.856Z,24.01
2017-08-21T01:11:54.307Z,24.04
2017-08-21T01:12:34.756Z,24.06
2017-08-21T01:13:15.234Z,23.92
2017-08-21T01:13:55.681Z,24.04
2017-08-21T01:14:36.129Z,24.01
2017-08-21T01:15:16.586Z,24.09
2017-08-21T01:15:57.033Z,23.95
2017-08-21T01:16:37.489Z,23.99
2017-08-21T01:17:17.945Z,24.04
2017-08-21T01:17:58.403Z,23.92
2017-08-21T01:18:38.887Z,24.01
2017-08-21T01:19:19.342Z,23.96
2017-08-21T01:19:59.819Z,23.95
2017-08-21T01:20:40.262Z,23.95
2017-08-21T01:21:20.710Z,23.95
2017-08-21T01:22:01.165Z,24
2017-08-21T01:22:41.632Z,24.01
2017-08-21T01:23:22.109Z,23.95
2017-08-21T01:24:02.574Z,23.94
2017-08-21T01:24:43.025Z,23.94
2017-08-21T01:25:23.474Z,24.01
2017-08-21T01:26:03.927Z,23.99
2017-08-21T01:26:44.383Z,24.03
2017-08-21T01:27:24.890Z,23.92
2017-08-21T01:28:05.304Z,23.95
2017-08-21T01:28:45.759Z,24.01
2017-08-21T01:29:26.209Z,23.94
2017-08-21T01:30:06.663Z,23.95
2017-08-21T01:30:47.120Z,23.99
2017-08-21T01:31:27.576Z,23.95
2017-08-21T01:32:08.046Z,24.03
2017-08-21T01:32:48.500Z,23.94
2017-08-21T01:33:28.954Z,23.99
2017-08-21T01:34:09.401Z,23.95
2017-08-21T01:34:49.848Z,23.94
2017-08-21T01:35:30.296Z,23.96
2017-08-21T01:36:10.749Z,23.95
2017-08-21T01:36:51.204Z,23.91
2017-08-21T01:37:31.655Z,23.91
2017-08-21T01:38:12.112Z,24
2017-08-21T01:38:52.570Z,23.94
2017-08-21T01:39:33.029Z,23.96
2017-08-21T01:40:13.491Z,23.91
2017-08-21T01:40:53.949Z,23.95
2017-08-21T01:41:34.402Z,23.95
2017-08-21T01:42:14.850Z,23.92
2017-08-21T01:42:55.299Z,23.95
2017-08-21T01:43:35.750Z,23.94
2017-08-21T01:44:16.216Z,23.92
2017-08-21T01:44:56.673Z,23.92
2017-08-21T01:45:37.122Z,23.91
2017-08-21T01:46:17.602Z,23.92
2017-08-21T01:46:58.054Z,23.95
2017-08-21T01:47:38.501Z,23.91
2017-08-21T01:48:18.942Z,23.92
2017-08-21T01:48:59.418Z,23.95
2017-08-21T01:49:39.846Z,23.91
2017-08-21T01:50:20.290Z,23.95
2017-08-21T01:51:00.743Z,23.91
2017-08-21T01:51:41.205Z,23.92
2017-08-21T01:52:21.677Z,23.91
2017-08-21T01:53:02.126Z,23.92
2017-08-21T01:53:42.575Z,23.89
2017-08-21T01:54:23.028Z,23.89
2017-08-21T01:55:03.463Z,23.95
2017-08-21T01:55:43.922Z,23.94
2017-08-21T01:56:24.388Z,23.91
2017-08-21T01:57:04.832Z,23.86
2017-08-21T01:57:45.383Z,23.92
2017-08-21T01:58:25.841Z,23.89
2017-08-21T01:59:06.288Z,23.92
2017-08-21T01:59:46.741Z,23.91
2017-08-21T02:00:27.205Z,23.94
2017-08-21T02:01:07.665Z,23.88
2017-08-21T02:01:48.123Z,23.91
2017-08-21T02:02:28.574Z,23.89
2017-08-21T02:03:09.020Z,23.91
2017-08-21T02:03:49.461Z,23.94
2017-08-21T02:04:29.922Z,23.95
2017-08-21T02:05:10.376Z,23.89
2017-08-21T02:05:50.834Z,23.84
2017-08-21T02:06:31.297Z,23.84
2017-08-21T02:07:11.757Z,23.94
2017-08-21T02:07:52.213Z,23.91
2017-08-21T02:08:32.672Z,23.91
2017-08-21T02:09:13.112Z,23.92
2017-08-21T02:09:53.568Z,23.91
2017-08-21T02:10:34.018Z,23.94
2017-08-21T02:11:14.477Z,23.88
2017-08-21T02:11:54.935Z,23.79
2017-08-21T02:12:35.386Z,23.84
2017-08-21T02:13:15.861Z,23.95
2017-08-21T02:13:56.319Z,23.88
2017-08-21T02:14:36.795Z,23.85
2017-08-21T02:15:17.249Z,23.92
2017-08-21T02:15:57.704Z,23.84
2017-08-21T02:16:38.167Z,23.88
2017-08-21T02:17:18.623Z,23.88
2017-08-21T02:17:59.076Z,23.85
2017-08-21T02:18:39.560Z,23.84
2017-08-21T02:19:20.008Z,23.88
2017-08-21T02:20:00.487Z,23.81
2017-08-21T02:20:40.944Z,23.85
2017-08-21T02:21:21.402Z,23.86
2017-08-21T02:22:01.862Z,23.84
2017-08-21T02:22:42.320Z,23.84
2017-08-21T02:23:22.771Z,23.84
2017-08-21T02:24:03.230Z,23.79
2017-08-21T02:24:43.686Z,23.76
2017-08-21T02:25:24.148Z,23.79
2017-08-21T02:26:04.610Z,23.88
2017-08-21T02:26:45.075Z,23.82
2017-08-21T02:27:25.524Z,23.86
2017-08-21T02:28:05.968Z,23.86
2017-08-21T02:28:46.434Z,23.77
2017-08-21T02:29:26.892Z,23.82
2017-08-21T02:30:07.345Z,23.84
2017-08-21T02:30:47.797Z,23.82
2017-08-21T02:31:28.242Z,23.88
2017-08-21T02:32:08.688Z,23.71
2017-08-21T02:32:49.134Z,23.84
2017-08-21T02:33:29.580Z,23.81
2017-08-21T02:34:10.031Z,23.84
2017-08-21T02:34:50.525Z,23.82
2017-08-21T02:35:30.979Z,23.76
2017-08-21T02:36:11.431Z,23.73
2017-08-21T02:36:51.901Z,23.79
2017-08-21T02:37:32.364Z,23.79
2017-08-21T02:38:12.840Z,23.79
2017-08-21T02:38:53.275Z,23.71
2017-08-21T02:39:33.732Z,23.74
2017-08-21T02:40:14.182Z,23.76
2017-08-21T02:40:54.642Z,23.77
2017-08-21T02:41:35.098Z,23.81
2017-08-21T02:42:15.550Z,23.77
2017-08-21T02:42:56.019Z,23.7
2017-08-21T02:43:36.473Z,23.77
2017-08-21T02:44:16.942Z,23.73
2017-08-21T02:44:57.384Z,23.84
2017-08-21T02:45:37.844Z,23.77
2017-08-21T02:46:18.298Z,23.79
2017-08-21T02:46:58.750Z,23.7
2017-08-21T02:47:39.243Z,23.7
2017-08-21T02:48:19.709Z,23.81
2017-08-21T02:49:00.177Z,23.84
2017-08-21T02:49:40.636Z,23.66
2017-08-21T02:50:21.094Z,23.77
2017-08-21T02:51:01.536Z,23.76
2017-08-21T02:51:41.987Z,23.76
2017-08-21T02:52:22.443Z,23.74
2017-08-21T02:53:02.886Z,23.66
2017-08-21T02:53:43.338Z,23.76
2017-08-21T02:54:23.796Z,23.76
2017-08-21T02:55:04.246Z,23.71
2017-08-21T02:55:44.705Z,23.67
2017-08-21T02:56:25.197Z,23.7
2017-08-21T02:57:05.672Z,23.69
2017-08-21T02:57:46.123Z,23.74
2017-08-21T02:58:26.572Z,23.7
2017-08-21T02:59:07.030Z,23.66
2017-08-21T02:59:47.466Z,23.69
2017-08-21T03:00:27.931Z,23.71
2017-08-21T03:01:08.382Z,23.7
2017-08-21T03:01:48.831Z,23.67
2017-08-21T03:02:29.297Z,23.71
2017-08-21T03:03:09.763Z,23.69
2017-08-21T03:05:02.364Z,23.7
2017-08-21T03:05:42.819Z,23.71
2017-08-21T03:06:23.275Z,23.67
2017-08-21T03:07:03.728Z,23.73
2017-08-21T03:07:44.187Z,23.66
2017-08-21T03:08:24.648Z,23.7
2017-08-21T03:09:05.095Z,23.66
2017-08-21T03:09:45.577Z,23.7
2017-08-21T03:10:26.029Z,23.81
2017-08-21T03:11:06.483Z,23.71
2017-08-21T03:11:46.932Z,23.76
2017-08-21T03:12:27.382Z,23.71
2017-08-21T03:13:07.831Z,23.71
2017-08-21T03:13:48.279Z,23.7
2017-08-21T03:14:28.741Z,23.76
2017-08-21T03:15:09.198Z,23.73
2017-08-21T03:15:49.646Z,23.7
2017-08-21T03:16:30.118Z,23.71
2017-08-21T03:17:10.573Z,23.71
2017-08-21T03:17:51.028Z,23.71
2017-08-21T03:18:31.476Z,23.74
2017-08-21T03:19:11.931Z,23.73
2017-08-21T03:19:52.387Z,23.81
2017-08-21T03:20:32.858Z,23.71
2017-08-21T03:21:13.314Z,23.73
2017-08-21T03:21:53.781Z,23.71
2017-08-21T03:22:34.231Z,23.73
2017-08-21T03:23:14.687Z,23.81
2017-08-21T03:23:55.162Z,23.71
2017-08-21T03:24:35.615Z,23.7
2017-08-21T03:25:16.072Z,23.74
2017-08-21T03:25:56.530Z,23.73
2017-08-21T03:26:36.989Z,23.73
2017-08-21T03:27:17.439Z,23.73
2017-08-21T03:27:57.889Z,23.7
2017-08-21T03:28:38.340Z,23.74
2017-08-21T03:29:18.801Z,23.77
2017-08-21T03:29:59.256Z,23.76
2017-08-21T03:30:39.713Z,23.76
2017-08-21T03:31:20.170Z,23.69
2017-08-21T03:32:00.633Z,23.81
2017-08-21T03:32:41.089Z,23.79
2017-08-21T03:33:21.544Z,23.73
2017-08-21T03:34:01.997Z,23.7
2017-08-21T03:34:42.470Z,23.69
2017-08-21T03:35:22.933Z,23.76
2017-08-21T03:36:03.386Z,23.71
2017-08-21T03:36:43.839Z,23.7
2017-08-21T03:37:24.302Z,23.69
2017-08-21T03:38:04.768Z,23.7
2017-08-21T03:38:45.249Z,23.73
2017-08-21T03:39:25.698Z,23.73
2017-08-21T03:40:06.183Z,23.71
2017-08-21T03:40:46.627Z,23.66
2017-08-21T03:41:27.080Z,23.7
2017-08-21T03:42:07.518Z,23.71
2017-08-21T03:42:48.092Z,23.79
2017-08-21T03:43:28.534Z,23.76
2017-08-21T03:44:08.969Z,23.67
2017-08-21T03:44:49.418Z,23.77
2017-08-21T03:45:29.870Z,23.73
2017-08-21T03:46:10.317Z,23.67
2017-08-21T03:46:50.759Z,23.73
2017-08-21T03:47:31.217Z,23.71
2017-08-21T03:48:11.667Z,23.76
2017-08-21T03:48:52.119Z,23.86
2017-08-21T03:49:32.571Z,23.79
2017-08-21T03:50:13.022Z,23.76
2017-08-21T03:50:53.475Z,23.76
2017-08-21T03:51:33.933Z,23.79
2017-08-21T03:52:14.388Z,23.82
2017-08-21T03:52:54.832Z,23.81
2017-08-21T03:53:35.292Z,23.82
2017-08-21T03:54:15.744Z,23.81
2017-08-21T03:54:56.185Z,23.86
2017-08-21T03:55:36.642Z,23.84
2017-08-21T03:56:17.100Z,23.85
2017-08-21T03:56:57.587Z,23.85
2017-08-21T03:57:38.037Z,23.76
2017-08-21T03:58:18.496Z,23.85
2017-08-21T03:58:58.954Z,23.89
2017-08-21T03:59:39.400Z,23.84
2017-08-21T04:00:19.860Z,23.82
2017-08-21T04:01:00.322Z,23.81
2017-08-21T04:01:40.768Z,23.89
2017-08-21T04:02:21.234Z,23.89
2017-08-21T04:03:01.686Z,23.88
2017-08-21T04:03:42.133Z,23.92
2017-08-21T04:04:22.589Z,23.89
2017-08-21T04:05:03.049Z,23.91
2017-08-21T04:05:43.511Z,23.91
2017-08-21T04:06:23.970Z,23.92
2017-08-21T04:07:04.423Z,23.94
2017-08-21T04:07:44.876Z,23.94
2017-08-21T04:08:25.342Z,23.96
2017-08-21T04:09:05.799Z,23.91
2017-08-21T04:09:46.247Z,23.94
2017-08-21T04:10:26.706Z,23.94
2017-08-21T04:11:07.164Z,23.96
2017-08-21T04:11:47.642Z,23.89
2017-08-21T04:12:28.093Z,23.92
2017-08-21T04:13:08.549Z,23.94
2017-08-21T04:13:49.003Z,24.07
2017-08-21T04:14:29.460Z,24.09
2017-08-21T04:15:09.915Z,24.01
2017-08-21T04:15:50.371Z,24.09
2017-08-21T04:16:30.825Z,23.94
2017-08-21T04:17:11.276Z,24.01
2017-08-21T04:17:51.737Z,24.04
2017-08-21T04:18:32.193Z,24.07
2017-08-21T04:19:12.654Z,24.04
2017-08-21T04:19:53.155Z,24.1
2017-08-21T04:20:33.619Z,24.07
2017-08-21T04:21:14.071Z,24.07
2017-08-21T04:21:54.525Z,24.07
2017-08-21T04:22:34.969Z,24.09
2017-08-21T04:23:15.432Z,24.09
2017-08-21T04:23:55.889Z,24.07
2017-08-21T04:24:36.346Z,24.04
2017-08-21T04:25:16.796Z,24.09
2017-08-21T04:25:57.250Z,24.03
2017-08-21T04:26:37.713Z,24.04
2017-08-21T04:27:18.143Z,23.92
2017-08-21T04:27:58.586Z,24.03
2017-08-21T04:28:39.037Z,24.06
2017-08-21T04:29:19.487Z,24
2017-08-21T04:29:59.937Z,24.09
2017-08-21T04:30:40.413Z,24.07
2017-08-21T04:31:20.884Z,24.07
2017-08-21T04:32:58.323Z,24.11
2017-08-21T04:33:38.782Z,24.01
2017-08-21T04:34:19.243Z,24.07
2017-08-21T04:34:59.684Z,24.06
2017-08-21T04:35:40.135Z,24.1
2017-08-21T04:36:20.588Z,24.03
2017-08-21T04:37:01.046Z,24.07
2017-08-21T04:37:41.502Z,24.09
2017-08-21T04:38:21.961Z,24.07
2017-08-21T04:39:02.418Z,24.07
2017-08-21T04:39:42.867Z,24.09
2017-08-21T04:40:23.315Z,23.99
2017-08-21T04:41:03.785Z,23.99
2017-08-21T04:41:44.238Z,23.99
2017-08-21T04:42:24.676Z,23.99
2017-08-21T04:43:05.132Z,23.95
2017-08-21T04:43:45.577Z,23.94
2017-08-21T04:44:26.027Z,23.92
2017-08-21T04:45:06.487Z,23.99
2017-08-21T04:45:46.940Z,23.92
2017-08-21T04:46:27.387Z,23.96
2017-08-21T04:47:07.849Z,23.89
2017-08-21T04:47:48.284Z,23.89
2017-08-21T04:48:28.756Z,23.91
2017-08-21T04:49:09.240Z,23.92
2017-08-21T04:49:49.657Z,23.92
2017-08-21T04:51:37.162Z,23.92
2017-08-21T04:52:17.612Z,23.92
2017-08-21T04:52:58.060Z,23.89
2017-08-21T04:53:38.518Z,23.99
2017-08-21T04:54:18.994Z,23.94
2017-08-21T04:54:59.449Z,23.88
2017-08-21T04:55:39.904Z,23.91
2017-08-21T04:56:20.364Z,23.94
2017-08-21T04:57:00.807Z,23.91
2017-08-21T04:57:41.234Z,23.95
2017-08-21T04:58:21.681Z,23.92
2017-08-21T04:59:02.134Z,23.91
2017-08-21T04:59:42.596Z,23.91
2017-08-21T05:00:23.066Z,23.89
2017-08-21T05:01:03.523Z,23.92
2017-08-21T05:01:43.981Z,23.91
2017-08-21T05:02:24.421Z,23.94
2017-08-21T05:03:04.896Z,23.91
2017-08-21T05:03:45.338Z,23.81
2017-08-21T05:04:25.825Z,23.91
2017-08-21T05:05:06.235Z,23.91
2017-08-21T05:05:46.671Z,23.92
2017-08-21T05:06:27.119Z,23.92
2017-08-21T05:07:07.507Z,23.89
2017-08-21T05:07:47.919Z,23.91
2017-08-21T05:08:28.358Z,23.91
2017-08-21T05:09:08.806Z,23.89
2017-08-21T05:09:49.257Z,23.91
2017-08-21T05:10:29.706Z,23.91
2017-08-21T05:11:10.156Z,23.89
2017-08-21T05:11:50.624Z,23.92
2017-08-21T05:12:31.080Z,23.92
2017-08-21T05:13:11.516Z,23.92
2017-08-21T05:13:51.963Z,23.92
2017-08-21T05:15:44.563Z,23.91
2017-08-21T05:16:25.014Z,23.92
2017-08-21T05:17:05.478Z,23.92
2017-08-21T05:17:45.925Z,23.88
2017-08-21T05:18:26.383Z,23.91
2017-08-21T05:19:06.833Z,23.88
2017-08-21T05:19:47.281Z,23.91
2017-08-21T05:20:27.735Z,23.92
2017-08-21T05:21:08.200Z,23.89
2017-08-21T05:21:48.657Z,23.94
2017-08-21T05:22:29.114Z,23.89
2017-08-21T05:23:09.549Z,23.91
2017-08-21T05:23:49.997Z,23.92
2017-08-21T05:24:30.443Z,23.92
2017-08-21T05:25:10.908Z,23.92
2017-08-21T05:25:51.348Z,23.92
2017-08-21T05:26:31.801Z,23.89
2017-08-21T05:27:12.264Z,23.88
2017-08-21T05:27:52.695Z,23.95
2017-08-21T05:28:33.148Z,23.94
2017-08-21T05:29:13.603Z,23.92
2017-08-21T05:29:54.050Z,23.89
2017-08-21T05:30:34.513Z,23.91
2017-08-21T05:31:14.963Z,23.94
2017-08-21T05:31:55.401Z,23.92
2017-08-21T05:32:35.860Z,23.95
2017-08-21T05:33:16.314Z,23.92
2017-08-21T05:33:56.778Z,23.85
2017-08-21T05:34:37.221Z,23.89
2017-08-21T05:35:17.682Z,23.94
2017-08-21T05:35:58.151Z,23.92
2017-08-21T05:36:38.610Z,23.94
2017-08-21T05:37:19.067Z,23.88
2017-08-21T05:37:59.531Z,23.92
2017-08-21T05:38:39.981Z,23.95
2017-08-21T05:39:20.435Z,23.86
2017-08-21T05:40:00.897Z,23.94
2017-08-21T05:40:41.356Z,23.88
2017-08-21T05:41:21.794Z,23.96
2017-08-21T05:42:02.244Z,23.89
2017-08-21T05:42:42.694Z,23.91
2017-08-21T05:43:23.149Z,23.94
2017-08-21T05:44:03.607Z,23.96
2017-08-21T05:44:44.072Z,23.92
2017-08-21T05:45:24.531Z,23.91
2017-08-21T05:46:04.986Z,23.94
2017-08-21T05:48:02.734Z,23.89
2017-08-21T05:48:43.185Z,23.89
2017-08-21T05:49:23.631Z,23.96
2017-08-21T05:50:04.080Z,23.99
2017-08-21T05:50:44.536Z,23.92
2017-08-21T05:51:24.977Z,23.99
2017-08-21T05:53:22.611Z,23.94
2017-08-21T05:54:03.064Z,23.91
2017-08-21T05:54:43.520Z,23.94
2017-08-21T05:55:23.968Z,23.99
2017-08-21T05:56:04.422Z,24.04
2017-08-21T05:56:44.896Z,23.96
2017-08-21T05:57:25.406Z,23.99
2017-08-21T05:58:05.829Z,24.04
2017-08-21T05:58:46.277Z,24.01
2017-08-21T05:59:26.715Z,24.06
2017-08-21T06:00:07.156Z,24.06
2017-08-21T06:00:47.608Z,24.04
2017-08-21T06:01:28.056Z,24.1
2017-08-21T06:02:08.498Z,24.07
2017-08-21T06:02:48.944Z,24.07
2017-08-21T06:03:29.421Z,24.06
2017-08-21T06:04:09.877Z,24.09
2017-08-21T06:04:50.328Z,24.06
2017-08-21T06:05:30.788Z,24.07
2017-08-21T06:06:11.247Z,24.03
2017-08-21T06:06:51.704Z,24.1
2017-08-21T06:07:32.155Z,23.99
2017-08-21T06:08:12.626Z,24.07
2017-08-21T06:08:53.058Z,24.03
2017-08-21T06:09:33.513Z,24.09
2017-08-21T06:10:13.961Z,24.07
2017-08-21T06:10:54.409Z,24.09
2017-08-21T06:11:34.869Z,24.14
2017-08-21T06:12:15.322Z,24.13
2017-08-21T06:12:55.784Z,24.1
2017-08-21T06:13:36.237Z,24.1
2017-08-21T06:14:16.691Z,24.14
2017-08-21T06:14:57.146Z,24.13
2017-08-21T06:15:37.627Z,24.1
2017-08-21T06:16:18.075Z,24.13
2017-08-21T06:16:58.535Z,24.1
2017-08-21T06:17:38.982Z,24.13
2017-08-21T06:18:19.429Z,24.13
2017-08-21T06:18:59.886Z,24.11
2017-08-21T06:19:40.428Z,24.16
2017-08-21T06:20:20.877Z,24.14
2017-08-21T06:21:01.334Z,24.18
2017-08-21T06:21:41.795Z,24.13
2017-08-21T06:22:22.234Z,24.13
2017-08-21T06:23:02.691Z,24.13
2017-08-21T06:23:43.140Z,24.13
2017-08-21T06:24:23.594Z,24.14
2017-08-21T06:25:04.045Z,24.14
2017-08-21T06:25:44.493Z,24.1
2017-08-21T06:26:24.962Z,24.13
2017-08-21T06:27:05.416Z,24.18
2017-08-21T06:27:45.871Z,24.1
2017-08-21T06:28:26.330Z,24.21
2017-08-21T06:29:06.787Z,24.22
2017-08-21T06:29:47.248Z,24.25
2017-08-21T06:30:27.706Z,24.19
2017-08-21T06:31:08.156Z,24.18
2017-08-21T06:31:48.616Z,24.21
2017-08-21T06:32:29.076Z,24.26
2017-08-21T06:33:09.527Z,24.16
2017-08-21T06:33:49.985Z,24.25
2017-08-21T06:34:30.431Z,24.26
2017-08-21T06:35:10.893Z,24.26
2017-08-21T06:35:51.325Z,24.25
2017-08-21T06:36:31.769Z,24.25
2017-08-21T06:37:12.247Z,24.31
2017-08-21T06:37:52.703Z,24.21
2017-08-21T06:38:33.157Z,24.29
2017-08-21T06:39:13.616Z,24.29
2017-08-21T06:39:54.065Z,24.34
2017-08-21T06:40:34.518Z,24.29
2017-08-21T06:41:14.969Z,24.34
2017-08-21T06:41:55.420Z,24.28
2017-08-21T06:42:35.874Z,24.31
2017-08-21T06:43:16.326Z,24.31
2017-08-21T06:43:56.775Z,24.29
2017-08-21T06:44:37.225Z,24.32
2017-08-21T06:45:17.710Z,24.38
2017-08-21T06:45:58.164Z,24.36
2017-08-21T06:46:38.613Z,24.46
2017-08-21T06:47:19.069Z,24.41
2017-08-21T06:47:59.523Z,24.5
2017-08-21T06:48:39.987Z,24.4
2017-08-21T06:49:20.439Z,24.41
2017-08-21T06:50:00.920Z,24.38
2017-08-21T06:50:41.384Z,24.43
2017-08-21T06:51:21.836Z,24.43
2017-08-21T06:52:02.294Z,24.44
2017-08-21T06:52:42.748Z,24.44
2017-08-21T06:53:23.195Z,24.47
2017-08-21T06:54:03.640Z,24.41
2017-08-21T06:54:44.104Z,24.47
2017-08-21T06:55:24.561Z,24.47
2017-08-21T06:56:05.017Z,24.51
2017-08-21T06:56:45.483Z,24.47
2017-08-21T06:57:25.953Z,24.5
2017-08-21T06:58:06.382Z,24.55
2017-08-21T06:58:46.829Z,24.5
2017-08-21T06:59:27.273Z,24.58
2017-08-21T07:00:07.742Z,24.62
2017-08-21T07:00:48.196Z,24.65
2017-08-21T07:01:28.649Z,24.62
2017-08-21T07:02:09.105Z,24.58
2017-08-21T07:02:49.560Z,24.59
2017-08-21T07:03:30.015Z,24.61
2017-08-21T07:04:10.472Z,24.65
2017-08-21T07:04:50.935Z,24.61
2017-08-21T07:05:31.387Z,24.61
2017-08-21T07:06:11.846Z,24.63
2017-08-21T07:06:52.292Z,24.59
2017-08-21T07:07:32.749Z,24.63
2017-08-21T07:08:13.202Z,24.66
2017-08-21T07:08:53.657Z,24.63
2017-08-21T07:09:34.127Z,24.66
2017-08-21T07:10:14.572Z,24.66
2017-08-21T07:10:55.024Z,24.77
2017-08-21T07:11:35.472Z,24.69
2017-08-21T07:12:15.931Z,24.68
2017-08-21T07:12:56.391Z,24.69
2017-08-21T07:13:36.847Z,24.78
2017-08-21T07:14:17.298Z,24.75
2017-08-21T07:14:57.749Z,24.86
2017-08-21T07:15:38.192Z,24.82
2017-08-21T07:16:18.658Z,24.85
2017-08-21T07:16:59.097Z,24.79
2017-08-21T07:17:39.557Z,24.93
2017-08-21T07:18:20.026Z,24.88
2017-08-21T07:19:00.476Z,24.88
2017-08-21T07:19:40.933Z,24.84
2017-08-21T07:20:21.393Z,24.93
2017-08-21T07:21:01.820Z,24.99
2017-08-21T07:21:42.270Z,25.01
2017-08-21T07:22:22.725Z,25.01
2017-08-21T07:23:03.188Z,24.99
2017-08-21T07:23:43.645Z,25.11
2017-08-21T07:24:24.093Z,25.07
2017-08-21T07:25:04.552Z,24.99
2017-08-21T07:25:45.005Z,25.04
2017-08-21T07:26:25.573Z,25
2017-08-21T07:27:05.946Z,25.11
2017-08-21T07:27:46.404Z,25.01
2017-08-21T07:28:26.866Z,25.03
2017-08-21T07:29:07.327Z,25.06
2017-08-21T07:29:47.775Z,25.09
2017-08-21T07:30:28.223Z,25.03
2017-08-21T07:31:08.677Z,25.12
2017-08-21T07:31:49.125Z,25.12
2017-08-21T07:32:29.588Z,25.06
2017-08-21T07:33:10.039Z,25.15
2017-08-21T07:33:50.491Z,25.18
2017-08-21T07:34:30.970Z,25.18
2017-08-21T07:35:11.441Z,25.24
2017-08-21T07:35:51.882Z,25.22
2017-08-21T07:36:32.332Z,25.19
2017-08-21T07:37:12.794Z,25.26
2017-08-21T07:37:53.254Z,25.24
2017-08-21T07:38:33.694Z,25.22
2017-08-21T07:39:14.181Z,25.21
2017-08-21T07:39:54.655Z,25.19
2017-08-21T07:40:35.106Z,25.21
2017-08-21T07:41:15.568Z,25.24
2017-08-21T07:41:56.021Z,25.29
2017-08-21T07:42:36.484Z,25.3
2017-08-21T07:43:16.925Z,25.29
2017-08-21T07:43:57.392Z,25.24
2017-08-21T07:44:37.852Z,25.29
2017-08-21T07:45:18.319Z,25.22
2017-08-21T07:45:58.768Z,25.33
2017-08-21T07:46:39.227Z,25.24
2017-08-21T07:47:19.683Z,25.34
2017-08-21T07:48:00.145Z,25.36
2017-08-21T07:48:40.604Z,25.36
2017-08-21T07:49:21.090Z,25.4
2017-08-21T07:50:58.523Z,25.39
2017-08-21T07:51:38.985Z,25.4
2017-08-21T07:52:19.454Z,25.36
2017-08-21T07:52:59.901Z,25.51
2017-08-21T07:53:40.358Z,25.49
2017-08-21T07:54:20.814Z,25.41
2017-08-21T07:55:01.254Z,25.52
2017-08-21T07:55:41.723Z,25.55
2017-08-21T07:56:22.178Z,25.49
2017-08-21T07:57:02.635Z,25.46
2017-08-21T07:57:43.086Z,25.58
2017-08-21T07:58:23.540Z,25.54
2017-08-21T07:59:04.048Z,25.58
2017-08-21T07:59:44.507Z,25.61
2017-08-21T08:00:24.975Z,25.61
2017-08-21T08:01:05.425Z,25.58
2017-08-21T08:01:45.870Z,25.67
2017-08-21T08:02:26.409Z,25.7
2017-08-21T08:03:06.863Z,25.56
2017-08-21T08:03:47.314Z,25.59
2017-08-21T08:04:27.767Z,25.66
2017-08-21T08:05:08.208Z,25.71
2017-08-21T08:07:00.848Z,25.73
2017-08-21T08:07:41.294Z,25.74
2017-08-21T08:08:21.737Z,25.78
2017-08-21T08:09:02.188Z,25.8
2017-08-21T08:09:42.633Z,25.76
2017-08-21T08:10:23.075Z,25.86
2017-08-21T08:11:03.530Z,25.81
2017-08-21T08:11:43.975Z,25.81
2017-08-21T08:12:24.428Z,25.89
2017-08-21T08:13:04.883Z,25.81
2017-08-21T08:13:45.344Z,25.93
2017-08-21T08:14:25.779Z,25.95
2017-08-21T08:15:06.219Z,25.81
2017-08-21T08:15:46.665Z,25.95
2017-08-21T08:16:27.112Z,25.93
2017-08-21T08:17:07.564Z,25.96
2017-08-21T08:17:48.024Z,25.98
2017-08-21T08:18:28.469Z,25.99
2017-08-21T08:19:08.906Z,26.03
2017-08-21T08:19:49.317Z,25.99
2017-08-21T08:20:29.751Z,25.92
2017-08-21T08:21:10.212Z,25.98
2017-08-21T08:21:50.673Z,25.99
2017-08-21T08:22:31.124Z,25.95
2017-08-21T08:23:11.588Z,26.07
2017-08-21T08:23:52.049Z,26.1
2017-08-21T08:24:32.510Z,25.99
2017-08-21T08:26:30.203Z,25.99
2017-08-21T08:27:10.693Z,26.11
2017-08-21T08:27:51.144Z,26.08
2017-08-21T08:28:31.603Z,26.03
2017-08-21T08:29:12.059Z,26.01
2017-08-21T08:29:52.509Z,26.1
2017-08-21T08:30:32.963Z,26.18
2017-08-21T08:31:13.422Z,26.11
2017-08-21T08:31:53.871Z,26.19
2017-08-21T08:32:34.326Z,26.16
2017-08-21T08:33:14.763Z,26.22
2017-08-21T08:33:55.206Z,26.29
2017-08-21T08:34:35.654Z,26.23
2017-08-21T08:35:16.108Z,26.23
2017-08-21T08:35:56.548Z,26.31
2017-08-21T08:36:36.997Z,26.26
2017-08-21T08:37:17.467Z,26.34
2017-08-21T08:37:57.923Z,26.3
2017-08-21T08:38:38.383Z,26.34
2017-08-21T08:39:18.841Z,26.41
2017-08-21T08:39:59.296Z,26.36
2017-08-21T08:40:39.748Z,26.41
2017-08-21T08:41:20.208Z,26.34
2017-08-21T08:42:00.638Z,26.42
2017-08-21T08:42:41.094Z,26.39
2017-08-21T08:43:21.554Z,26.44
2017-08-21T08:44:02.010Z,26.46
2017-08-21T08:44:42.461Z,26.46
2017-08-21T08:45:22.904Z,26.49
2017-08-21T08:46:03.367Z,26.52
2017-08-21T08:46:43.808Z,26.51
2017-08-21T08:47:24.261Z,26.49
2017-08-21T08:48:04.721Z,26.56
2017-08-21T08:48:45.148Z,26.59
2017-08-21T08:49:25.621Z,26.63
2017-08-21T08:50:06.051Z,26.6
2017-08-21T08:50:46.489Z,26.66
2017-08-21T08:51:26.939Z,26.64
2017-08-21T08:52:07.391Z,26.59
2017-08-21T08:52:47.833Z,26.6